Time;durP1;ratioP1;P1;durP2;ratioP2;P2;SDS_P1;SDS_P2;PMS_P1;PMS_P2;Temp;Humidity;BMP_temperature;BMP_pressure;BME280_temperature;BME280_humidity;BME280_pressure;Samples;Min_cycle;Max_cycle;Signal;HPM_P1;HPM_P2
2021/07/21 00:00:35;;;;;;;15.38;7.32;;;;;;;15.65;68.76;101965.00;5029822;28;20109;-72
2021/07/21 00:03:01;;;;;;;12.38;7.07;;;;;;;15.64;68.75;101965.97;5016839;28;20056;-72
2021/07/21 00:05:27;;;;;;;15.63;7.70;;;;;;;15.63;68.58;101972.16;5029894;28;20036;-72
2021/07/21 00:07:53;;;;;;;13.55;7.70;;;;;;;15.57;68.92;101965.78;5022847;28;20029;-72
2021/07/21 00:10:21;;;;;;;12.90;8.18;;;;;;;15.55;69.13;101969.53;5029276;28;20037;-72
2021/07/21 00:15:34;;;;;;;12.45;6.85;;;;;;;15.50;69.03;101967.41;5034357;28;20079;-72
2021/07/21 00:18:02;;;;;;;13.88;7.35;;;;;;;15.48;69.02;101964.16;5029549;28;20041;-73
2021/07/21 00:20:32;;;;;;;15.27;7.97;;;;;;;15.47;68.96;101959.09;5036856;28;20052;-72
2021/07/21 00:22:58;;;;;;;18.00;8.35;;;;;;;15.41;69.60;101955.31;5021247;28;20034;-73
2021/07/21 00:25:24;;;;;;;13.85;7.03;;;;;;;15.34;69.56;101954.31;5029238;28;20126;-72
2021/07/21 00:27:50;;;;;;;13.25;7.00;;;;;;;15.32;69.67;101954.47;5030182;28;20070;-72
2021/07/21 00:30:18;;;;;;;13.60;7.43;;;;;;;15.30;69.75;101959.03;5037150;28;20120;-72
2021/07/21 00:32:44;;;;;;;15.40;8.50;;;;;;;15.28;69.49;101950.53;5020877;28;20037;-72
2021/07/21 00:35:16;;;;;;;17.08;8.40;;;;;;;15.27;69.55;101954.09;5039801;28;20051;-72
2021/07/21 00:37:41;;;;;;;15.13;7.75;;;;;;;15.25;69.38;101953.44;5025570;28;20039;-72
2021/07/21 00:40:10;;;;;;;13.68;8.13;;;;;;;15.22;69.39;101950.34;5025829;28;20710;-73
2021/07/21 00:42:36;;;;;;;14.90;7.85;;;;;;;15.18;69.48;101955.91;5025580;28;20105;-73
2021/07/21 00:45:02;;;;;;;15.80;8.35;;;;;;;15.17;69.48;101950.81;5027115;28;20644;-73
2021/07/21 00:47:28;;;;;;;16.35;8.00;;;;;;;15.16;69.36;101951.78;5023378;28;20025;-73
2021/07/21 00:49:54;;;;;;;13.23;7.43;;;;;;;15.07;70.04;101947.50;5031248;28;20068;-73
2021/07/21 00:52:20;;;;;;;15.73;7.65;;;;;;;15.04;70.14;101953.88;5025531;28;20029;-73
2021/07/21 00:54:48;;;;;;;20.13;8.38;;;;;;;15.02;70.15;101950.59;5021767;28;20028;-73
2021/07/21 00:57:16;;;;;;;14.95;8.00;;;;;;;14.95;70.42;101942.56;5031237;28;20029;-73
2021/07/21 00:59:42;;;;;;;12.50;8.07;;;;;;;14.87;70.72;101952.19;5023409;28;20021;-73
2021/07/21 01:02:08;;;;;;;13.75;8.13;;;;;;;14.78;71.17;101944.28;5033186;28;20032;-73
2021/07/21 01:04:37;;;;;;;18.13;7.45;;;;;;;14.78;71.21;101939.06;5027190;28;20033;-74
2021/07/21 01:07:07;;;;;;;15.90;7.40;;;;;;;14.76;71.01;101941.00;5028309;28;20437;-74
2021/07/21 01:09:41;;;;;;;18.58;8.80;;;;;;;14.68;71.57;101942.78;5026092;28;20118;-74
2021/07/21 01:12:38;;;;;;;15.00;8.13;;;;;;;14.63;71.71;101942.41;5030833;28;20166;-74
2021/07/21 01:15:26;;;;;;;14.18;7.72;;;;;;;14.59;71.74;101939.31;5027558;28;20077;-74
2021/07/21 01:18:01;;;;;;;13.27;7.65;;;;;;;14.57;71.67;101942.06;5006233;28;20041;-73
2021/07/21 01:20:45;;;;;;;19.05;8.77;;;;;;;14.50;71.46;101941.00;5018886;28;20037;-74
2021/07/21 01:23:16;;;;;;;16.02;7.75;;;;;;;14.28;71.96;101933.69;5026393;28;20484;-74
2021/07/21 01:25:55;;;;;;;13.13;6.88;;;;;;;14.20;72.18;101935.28;5031440;28;20040;-74
2021/07/21 01:28:29;;;;;;;16.98;7.28;;;;;;;14.20;72.60;101939.66;5031139;28;20029;-74
2021/07/21 01:30:57;;;;;;;15.88;8.57;;;;;;;14.22;72.57;101942.94;5018988;28;20029;-74
2021/07/21 01:33:24;;;;;;;14.63;7.35;;;;;;;14.23;72.95;101938.56;5025127;28;20372;-74
2021/07/21 01:36:09;;;;;;;14.68;8.02;;;;;;;14.24;72.86;101934.97;5032252;28;20030;-74
2021/07/21 01:38:48;;;;;;;14.93;7.75;;;;;;;14.24;72.88;101940.19;5023790;28;20022;-75
2021/07/21 01:41:21;;;;;;;17.38;9.30;;;;;;;14.13;73.19;101938.66;5032310;28;20034;-74
2021/07/21 01:43:54;;;;;;;15.33;7.67;;;;;;;14.07;73.08;101945.31;5028591;28;20120;-74
2021/07/21 01:46:25;;;;;;;14.07;7.50;;;;;;;14.09;73.07;101947.72;5020691;28;20491;-74
2021/07/21 01:48:54;;;;;;;14.35;7.45;;;;;;;14.12;72.62;101948.25;5022643;28;20021;-74
2021/07/21 01:51:24;;;;;;;15.85;8.18;;;;;;;14.15;72.57;101949.75;5025791;28;20033;-73
2021/07/21 01:53:52;;;;;;;19.80;9.45;;;;;;;14.16;72.49;101956.59;5025047;28;20120;-74
2021/07/21 01:56:21;;;;;;;17.55;8.13;;;;;;;14.13;72.81;101959.53;5018957;28;20574;-75
2021/07/21 01:58:52;;;;;;;15.40;8.10;;;;;;;14.12;72.77;101956.06;5033458;28;20410;-75
2021/07/21 02:01:45;;;;;;;16.77;8.73;;;;;;;14.07;72.98;101947.91;5027169;28;20040;-75
2021/07/21 02:04:22;;;;;;;19.35;8.23;;;;;;;13.99;73.40;101951.28;5029285;28;20591;-75
2021/07/21 02:06:48;;;;;;;13.70;8.15;;;;;;;13.90;73.69;101956.53;5027139;28;20042;-74
2021/07/21 02:09:15;;;;;;;15.60;7.95;;;;;;;13.86;73.96;101960.41;5029925;28;20116;-75
2021/07/21 02:11:44;;;;;;;12.73;6.70;;;;;;;13.83;73.98;101962.38;5011598;28;20517;-75
2021/07/21 02:14:13;;;;;;;12.45;7.35;;;;;;;13.87;73.98;101967.28;5027071;28;20134;-75
2021/07/21 02:16:57;;;;;;;20.38;9.02;;;;;;;13.87;73.76;101972.50;5038157;28;20025;-74
2021/07/21 02:19:29;;;;;;;13.35;8.02;;;;;;;13.89;73.55;101979.19;5011866;28;20037;-75
2021/07/21 02:22:07;;;;;;;16.30;8.30;;;;;;;13.87;73.92;101977.72;5024424;28;20042;-75
2021/07/21 02:24:44;;;;;;;18.00;9.15;;;;;;;13.84;73.78;101973.59;5023608;28;20033;-74
2021/07/21 02:27:20;;;;;;;16.45;8.50;;;;;;;13.81;74.13;101981.75;5024493;28;20392;-74
2021/07/21 02:29:50;;;;;;;16.42;8.85;;;;;;;13.82;73.64;101973.78;5011742;28;20697;-74
2021/07/21 02:32:23;;;;;;;14.20;7.32;;;;;;;13.80;73.87;101972.25;5015802;28;20033;-74
2021/07/21 02:34:49;;;;;;;15.70;8.40;;;;;;;13.79;73.94;101974.06;5033465;28;20044;-74
2021/07/21 02:37:17;;;;;;;14.70;8.20;;;;;;;13.79;73.67;101979.28;5023541;28;20063;-75
2021/07/21 02:39:48;;;;;;;16.45;9.15;;;;;;;13.80;73.51;101975.69;5027094;28;20033;-74
2021/07/21 02:42:15;;;;;;;16.25;8.52;;;;;;;13.79;73.73;101991.50;5030446;28;20086;-74
2021/07/21 02:44:46;;;;;;;16.35;8.85;;;;;;;13.79;74.02;101986.28;5032505;28;20033;-74
2021/07/21 02:47:13;;;;;;;18.15;10.15;;;;;;;13.76;74.05;101984.78;5029145;28;20041;-74
2021/07/21 02:49:40;;;;;;;14.07;8.15;;;;;;;13.75;74.51;101982.31;5008480;28;20040;-74
2021/07/21 02:52:20;;;;;;;14.13;8.23;;;;;;;13.73;74.50;101985.09;5024995;28;20036;-74
2021/07/21 02:55:00;;;;;;;15.80;8.82;;;;;;;13.72;74.25;101983.44;5027652;28;21551;-74
2021/07/21 02:57:44;;;;;;;18.98;8.68;;;;;;;13.72;74.13;101987.84;5031868;28;20030;-74
2021/07/21 03:00:17;;;;;;;16.27;8.43;;;;;;;13.70;74.32;101984.56;5033343;28;20124;-74
2021/07/21 03:02:53;;;;;;;17.15;8.30;;;;;;;13.67;74.29;101977.84;5025928;28;20112;-74
2021/07/21 03:05:23;;;;;;;15.05;8.80;;;;;;;13.66;74.24;101976.22;5025936;28;20043;-74
2021/07/21 03:08:05;;;;;;;15.63;8.10;;;;;;;13.63;74.18;101976.50;5028284;28;20091;-73
2021/07/21 03:10:33;;;;;;;14.00;8.30;;;;;;;13.54;74.59;101982.59;5029633;28;20403;-73
2021/07/21 03:13:20;;;;;;;20.52;8.93;;;;;;;13.41;74.95;101975.97;5025287;28;20104;-73
2021/07/21 03:15:55;;;;;;;16.65;8.48;;;;;;;13.36;74.95;101977.34;5032130;28;20032;-73
2021/07/21 03:18:32;;;;;;;16.38;6.63;;;;;;;13.36;74.80;101988.59;5034593;28;20040;-73
2021/07/21 03:20:59;;;;;;;17.70;8.57;;;;;;;13.37;74.70;101985.03;5032238;28;20556;-73
2021/07/21 03:23:28;;;;;;;15.43;8.02;;;;;;;13.39;74.50;101983.09;5035658;28;20033;-72
2021/07/21 03:26:19;;;;;;;15.20;8.95;;;;;;;13.39;74.60;101983.09;5031163;28;20037;-72
2021/07/21 03:28:47;;;;;;;13.80;7.43;;;;;;;13.37;74.75;101989.41;5032837;28;20034;-73
2021/07/21 03:31:16;;;;;;;16.80;8.82;;;;;;;13.36;74.90;101986.00;5037462;28;20029;-73
2021/07/21 03:33:45;;;;;;;17.45;8.77;;;;;;;13.37;74.89;101989.41;5021408;28;20121;-72
2021/07/21 03:36:15;;;;;;;16.27;8.73;;;;;;;13.33;75.04;101993.28;5036564;28;20711;-73
2021/07/21 03:38:59;;;;;;;14.73;8.50;;;;;;;13.30;75.16;101991.78;5031857;28;20552;-73
2021/07/21 03:41:37;;;;;;;16.20;8.45;;;;;;;13.29;74.85;101992.69;5030535;28;20036;-74
2021/07/21 03:44:06;;;;;;;16.10;8.32;;;;;;;13.29;74.90;101997.91;5037578;28;20111;-74
2021/07/21 03:46:35;;;;;;;14.55;7.82;;;;;;;13.27;75.13;101992.03;5028919;28;20501;-73
2021/07/21 03:49:01;;;;;;;15.27;8.43;;;;;;;13.27;75.18;101997.25;5026239;28;20037;-74
2021/07/21 03:51:39;;;;;;;17.85;8.57;;;;;;;13.24;75.17;101992.31;5017744;28;20115;-73
2021/07/21 03:54:26;;;;;;;16.67;8.27;;;;;;;13.20;75.65;101994.41;5025601;28;20040;-73
2021/07/21 03:57:05;;;;;;;15.05;8.80;;;;;;;13.20;75.94;101998.78;5026866;28;20064;-73
2021/07/21 03:59:37;;;;;;;15.90;8.65;;;;;;;13.19;75.70;101990.16;5016401;28;20025;-73
2021/07/21 04:02:08;;;;;;;19.33;9.18;;;;;;;13.18;75.58;101998.91;5012075;28;20029;-73
2021/07/21 04:04:40;;;;;;;17.75;8.77;;;;;;;13.18;75.58;101995.50;5027300;28;20035;-73
2021/07/21 04:07:08;;;;;;;17.30;8.23;;;;;;;13.17;75.49;102005.09;5029525;28;20527;-74
2021/07/21 04:09:58;;;;;;;14.60;7.72;;;;;;;13.16;75.52;102006.06;5027065;28;20025;-74
2021/07/21 04:12:29;;;;;;;15.57;8.32;;;;;;;13.18;75.34;102008.53;5032957;28;20075;-74
2021/07/21 04:15:02;;;;;;;17.92;8.48;;;;;;;13.16;75.47;102010.44;5039974;28;20033;-74
2021/07/21 04:17:40;;;;;;;18.00;9.25;;;;;;;13.17;75.82;102017.31;5011947;28;20095;-74
2021/07/21 04:20:12;;;;;;;14.88;8.32;;;;;;;13.16;75.77;102011.25;5029446;28;20376;-75
2021/07/21 04:22:40;;;;;;;17.17;9.07;;;;;;;13.18;75.92;102011.94;5030200;28;20036;-74
2021/07/21 04:25:10;;;;;;;15.73;8.77;;;;;;;13.19;75.68;102010.19;5025605;28;20030;-74
2021/07/21 04:27:39;;;;;;;16.92;8.38;;;;;;;13.17;75.75;102012.91;5035335;28;20495;-74
2021/07/21 04:30:17;;;;;;;14.00;8.13;;;;;;;13.17;76.04;102010.31;5032108;28;20203;-75
2021/07/21 04:32:45;;;;;;;16.20;8.85;;;;;;;13.19;75.66;102018.00;5031573;28;20032;-75
2021/07/21 04:35:16;;;;;;;18.02;9.40;;;;;;;13.19;75.68;102016.19;5032080;28;20045;-74
2021/07/21 04:37:49;;;;;;;15.13;7.47;;;;;;;13.18;75.96;102024.97;5024652;28;20694;-75
2021/07/21 04:40:17;;;;;;;13.30;7.65;;;;;;;13.18;76.17;102030.16;5034566;28;20116;-75
2021/07/21 04:43:07;;;;;;;14.90;8.00;;;;;;;13.15;76.43;102027.06;5026522;28;20417;-75
2021/07/21 04:45:33;;;;;;;15.38;8.65;;;;;;;13.18;76.34;102026.75;5026092;28;20037;-74
2021/07/21 04:48:00;;;;;;;14.98;9.13;;;;;;;13.20;76.60;102030.03;5032205;28;20032;-74
2021/07/21 04:50:37;;;;;;;18.60;9.68;;;;;;;13.24;76.79;102028.78;5027439;28;20033;-74
2021/07/21 04:53:04;;;;;;;19.23;9.07;;;;;;;13.29;76.44;102030.97;5039638;28;20117;-74
2021/07/21 04:55:30;;;;;;;17.02;9.43;;;;;;;13.32;76.46;102034.13;5027770;28;20380;-74
2021/07/21 04:57:56;;;;;;;17.00;8.85;;;;;;;13.36;76.79;102032.88;5034904;28;20083;-74
2021/07/21 05:00:29;;;;;;;;;;;;;;;13.41;77.33;102041.09;5030412;28;20128;-74
2021/07/21 05:03:11;;;;;;;16.80;8.07;;;;;;;13.48;77.00;102037.91;5028203;28;19945;-73
2021/07/21 05:05:41;;;;;;;20.63;9.18;;;;;;;13.54;76.98;102034.69;5031596;28;20564;-74
2021/07/21 05:08:09;;;;;;;18.98;9.48;;;;;;;13.58;77.71;102041.25;5030029;28;20498;-74
2021/07/21 05:10:46;;;;;;;15.73;8.32;;;;;;;13.65;77.72;102044.94;5021601;28;20100;-74
2021/07/21 05:13:13;;;;;;;16.83;8.30;;;;;;;13.73;77.54;102037.22;5029772;28;20049;-74
2021/07/21 05:15:44;;;;;;;20.08;9.45;;;;;;;13.84;77.04;102049.22;5006685;28;20394;-74
2021/07/21 05:18:12;;;;;;;17.38;9.35;;;;;;;13.94;76.29;102044.75;5030324;28;20056;-74
2021/07/21 05:20:43;;;;;;;17.00;10.40;;;;;;;14.05;76.69;102045.50;5035314;28;20037;-74
2021/07/21 05:23:11;;;;;;;16.60;9.90;;;;;;;14.13;77.44;102049.00;5025942;28;20483;-74
2021/07/21 05:25:41;;;;;;;16.05;8.57;;;;;;;14.26;77.24;102053.03;5033783;28;20549;-74
2021/07/21 05:28:32;;;;;;;18.88;8.85;;;;;;;14.41;76.67;102049.75;5027219;28;20389;-74
2021/07/21 05:31:07;;;;;;;17.05;8.52;;;;;;;14.54;76.75;102044.16;5029839;28;20030;-74
2021/07/21 05:33:52;;;;;;;20.73;10.15;;;;;;;14.70;77.32;102056.50;5025701;28;20040;-74
2021/07/21 05:36:19;;;;;;;16.83;8.82;;;;;;;14.86;77.73;102057.59;5029427;28;20041;-74
2021/07/21 05:38:47;;;;;;;17.95;9.88;;;;;;;15.02;77.81;102054.28;5009898;28;20084;-74
2021/07/21 05:41:12;;;;;;;24.05;10.77;;;;;;;15.15;77.61;102050.25;5030590;28;20414;-74
2021/07/21 05:43:42;;;;;;;17.98;10.55;;;;;;;15.32;76.89;102050.34;5027656;28;20033;-74
2021/07/21 05:46:08;;;;;;;19.50;10.38;;;;;;;15.52;76.44;102050.88;5027786;28;20586;-73
2021/07/21 05:48:38;;;;;;;18.38;10.38;;;;;;;15.73;75.44;102053.94;5010519;28;20060;-72
2021/07/21 05:51:22;;;;;;;17.63;9.00;;;;;;;16.07;71.32;102063.47;5027352;28;20071;-72
2021/07/21 05:53:55;;;;;;;18.92;10.30;;;;;;;16.31;71.23;102056.63;5010611;28;20041;-73
2021/07/21 05:56:20;;;;;;;14.02;7.82;;;;;;;16.49;70.08;102054.66;5023064;28;20026;-72
2021/07/21 05:58:54;;;;;;;15.80;9.00;;;;;;;16.82;67.13;102049.44;5026211;28;20033;-73
2021/07/21 06:01:20;;;;;;;12.40;7.38;;;;;;;17.09;66.43;102050.00;5026564;28;20033;-73
2021/07/21 06:03:47;;;;;;;14.77;8.50;;;;;;;17.36;65.58;102047.94;5026057;28;20087;-72
2021/07/21 06:06:31;;;;;;;14.32;7.13;;;;;;;17.69;62.44;102049.41;5029388;28;20076;-72
2021/07/21 06:08:59;;;;;;;13.65;7.20;;;;;;;17.97;62.21;102046.31;5030102;28;20125;-73
2021/07/21 06:11:31;;;;;;;11.73;6.82;;;;;;;18.29;61.43;102052.31;5039357;28;20052;-72
2021/07/21 06:13:59;;;;;;;14.73;6.85;;;;;;;18.58;61.17;102046.31;5015589;28;20068;-73
2021/07/21 06:16:28;;;;;;;11.07;6.90;;;;;;;18.94;59.53;102056.16;5036969;28;20090;-72
2021/07/21 06:18:54;;;;;;;18.50;7.63;;;;;;;19.12;59.26;102052.31;5030951;28;20034;-73
2021/07/21 06:21:21;;;;;;;13.13;6.00;;;;;;;19.50;57.46;102057.47;5028927;28;20564;-73
2021/07/21 06:24:21;;;;;;;9.45;5.15;;;;;;;19.80;56.45;102056.41;5032390;28;20036;-73
2021/07/21 06:26:49;;;;;;;11.20;6.75;;;;;;;20.02;56.41;102065.13;5032075;28;20029;-72
2021/07/21 06:29:28;;;;;;;10.52;5.97;;;;;;;20.26;54.99;102062.28;5035966;28;20029;-73
2021/07/21 06:31:57;;;;;;;10.85;5.97;;;;;;;20.45;54.90;102061.63;5012403;28;20385;-73
2021/07/21 06:34:23;;;;;;;15.73;5.95;;;;;;;20.60;52.56;102066.84;5037477;28;20048;-73
2021/07/21 06:36:49;;;;;;;8.82;5.13;;;;;;;20.88;53.20;102064.19;5008663;28;20368;-72
2021/07/21 06:39:15;;;;;;;9.57;5.30;;;;;;;21.11;53.40;102061.25;5034211;28;20029;-73
2021/07/21 06:41:44;;;;;;;12.10;5.93;;;;;;;21.10;51.20;102066.75;5043086;28;20107;-73
2021/07/21 06:44:10;;;;;;;13.38;6.07;;;;;;;20.96;50.36;102064.03;5037361;28;20029;-73
2021/07/21 06:46:48;;;;;;;15.45;6.30;;;;;;;21.03;52.64;102071.97;5014373;28;20080;-73
2021/07/21 06:49:19;;;;;;;12.02;5.75;;;;;;;21.22;51.39;102070.44;5030271;28;20513;-74
2021/07/21 06:51:45;;;;;;;11.82;6.00;;;;;;;21.46;51.03;102066.50;5023297;28;20390;-74
2021/07/21 06:54:16;;;;;;;13.82;6.68;;;;;;;21.77;50.04;102076.56;5019321;28;20040;-73
2021/07/21 06:57:00;;;;;;;16.35;8.18;;;;;;;21.85;48.43;102080.00;5024783;28;20091;-73
2021/07/21 06:59:43;;;;;;;15.32;7.30;;;;;;;22.13;48.94;102071.91;5028125;28;20050;-73
2021/07/21 07:02:16;;;;;;;13.20;6.00;;;;;;;22.49;49.10;102076.00;5041669;28;20037;-75
2021/07/21 07:05:13;;;;;;;13.20;6.30;;;;;;;22.63;50.10;102085.56;5022822;28;20040;-73
2021/07/21 07:07:57;;;;;;;11.77;6.00;;;;;;;23.06;50.00;102079.81;5033476;28;20079;-73
2021/07/21 07:10:43;;;;;;;10.48;5.85;;;;;;;23.55;49.05;102080.22;5030360;28;20037;-73
2021/07/21 07:13:08;;;;;;;10.23;5.90;;;;;;;23.74;47.42;102086.41;5038146;28;20060;-74
2021/07/21 07:15:34;;;;;;;12.07;7.10;;;;;;;23.89;46.64;102092.25;5027890;28;20037;-74
2021/07/21 07:18:00;;;;;;;14.70;6.53;;;;;;;24.08;46.32;102090.50;5039388;28;20128;-74
2021/07/21 07:20:25;;;;;;;10.98;5.75;;;;;;;24.42;45.59;102090.22;5037216;28;20042;-74
2021/07/21 07:22:51;;;;;;;10.20;5.30;;;;;;;24.67;45.12;102098.97;5033359;28;20034;-73
2021/07/21 07:25:16;;;;;;;11.23;5.07;;;;;;;24.58;45.40;102087.06;5029612;28;20033;-73
2021/07/21 07:27:42;;;;;;;9.23;5.53;;;;;;;24.66;45.36;102089.41;5034640;28;20041;-73
2021/07/21 07:30:11;;;;;;;8.70;5.13;;;;;;;24.79;43.99;102082.34;5035373;28;20529;-74
2021/07/21 07:32:37;;;;;;;10.07;6.35;;;;;;;24.67;43.76;102088.38;5020717;28;20067;-74
2021/07/21 07:35:04;;;;;;;12.82;4.97;;;;;;;24.86;44.04;102091.88;5033899;28;20398;-73
2021/07/21 07:37:30;;;;;;;9.85;5.28;;;;;;;24.80;43.90;102094.59;5015013;28;20018;-73
2021/07/21 07:39:55;;;;;;;12.32;6.03;;;;;;;25.26;43.19;102085.34;5027719;28;20574;-73
2021/07/21 07:42:21;;;;;;;12.25;5.03;;;;;;;25.18;41.45;102083.75;5032532;28;20037;-74
2021/07/21 07:44:46;;;;;;;11.93;5.55;;;;;;;25.10;41.47;102078.75;5028804;28;20371;-73
2021/07/21 07:47:13;;;;;;;9.40;4.88;;;;;;;25.26;41.63;102090.66;5021038;28;20255;-76
2021/07/21 07:49:39;;;;;;;10.15;4.97;;;;;;;25.13;40.62;102085.44;5025353;28;20047;-74
2021/07/21 07:52:04;;;;;;;9.30;5.68;;;;;;;25.09;39.61;102085.09;5029204;28;20030;-75
2021/07/21 07:54:30;;;;;;;8.70;4.28;;;;;;;25.03;40.77;102080.66;5027695;28;20426;-73
2021/07/21 07:56:55;;;;;;;6.18;4.22;;;;;;;25.43;40.74;102086.31;5024122;28;20034;-73
2021/07/21 07:59:21;;;;;;;8.50;4.03;;;;;;;25.48;39.22;102079.53;5021179;28;20181;-75
2021/07/21 08:01:46;;;;;;;7.60;4.00;;;;;;;25.69;40.10;102081.66;5020313;28;20576;-74
2021/07/21 08:04:12;;;;;;;6.32;4.38;;;;;;;25.91;40.05;102081.16;5031730;28;20033;-74
2021/07/21 08:06:37;;;;;;;5.68;3.17;;;;;;;26.20;36.99;102080.31;5022028;28;20306;-74
2021/07/21 08:09:12;;;;;;;5.88;3.13;;;;;;;26.21;38.12;102084.56;5033844;28;20101;-74
2021/07/21 08:11:38;;;;;;;7.60;3.83;;;;;;;26.69;36.52;102074.78;5020078;28;20069;-75
2021/07/21 08:14:04;;;;;;;6.10;3.78;;;;;;;26.56;35.85;102077.63;5026081;28;20116;-74
2021/07/21 08:16:29;;;;;;;4.55;2.92;;;;;;;26.46;36.91;102082.75;5029521;28;20506;-75
2021/07/21 08:18:55;;;;;;;6.40;3.65;;;;;;;26.67;37.04;102084.03;5031175;28;20060;-74
2021/07/21 08:21:20;;;;;;;7.97;3.10;;;;;;;26.97;35.82;102079.38;5029411;28;20033;-74
2021/07/21 08:23:46;;;;;;;5.10;3.17;;;;;;;26.93;36.08;102083.50;5032480;28;20607;-75
2021/07/21 08:26:11;;;;;;;11.20;3.72;;;;;;;27.34;35.44;102075.56;5008752;28;20111;-75
2021/07/21 08:28:38;;;;;;;7.18;4.00;;;;;;;27.47;33.92;102069.94;5034359;28;20037;-74
2021/07/21 08:31:04;;;;;;;4.28;2.97;;;;;;;27.68;34.38;102076.44;5025860;28;20029;-75
2021/07/21 08:33:29;;;;;;;7.85;3.72;;;;;;;27.32;34.93;102080.31;5042292;28;20474;-77
2021/07/21 08:35:55;;;;;;;8.13;3.70;;;;;;;27.61;34.52;102074.97;5019778;28;20029;-75
2021/07/21 08:38:20;;;;;;;7.95;3.22;;;;;;;27.77;34.27;102076.84;5030731;28;20057;-75
2021/07/21 08:40:47;;;;;;;6.35;3.75;;;;;;;27.66;32.47;102073.19;5030621;28;20037;-75
2021/07/21 08:43:15;;;;;;;10.05;3.67;;;;;;;27.74;33.91;102072.78;5019109;28;20043;-76
2021/07/21 08:45:40;;;;;;;6.18;3.75;;;;;;;27.55;34.12;102074.06;5033351;28;20040;-77
2021/07/21 08:48:06;;;;;;;9.40;3.50;;;;;;;27.72;33.73;102080.22;5033796;28;20039;-77
2021/07/21 08:50:32;;;;;;;8.90;4.07;;;;;;;27.70;33.64;102078.84;5037060;28;20053;-76
2021/07/21 08:52:58;;;;;;;6.13;3.75;;;;;;;27.81;32.55;102074.53;5036888;28;20064;-76
2021/07/21 08:55:25;;;;;;;6.57;3.58;;;;;;;28.09;32.79;102076.34;5033535;28;20045;-76
2021/07/21 08:57:51;;;;;;;7.65;4.22;;;;;;;27.70;31.99;102071.66;5037336;28;20156;-75
2021/07/21 09:00:17;;;;;;;6.05;3.65;;;;;;;27.57;32.44;102074.63;5032734;28;20076;-75
2021/07/21 09:02:44;;;;;;;5.78;3.67;;;;;;;27.92;31.54;102079.81;5034116;28;21098;-76
2021/07/21 09:05:12;;;;;;;6.72;3.95;;;;;;;27.71;31.77;102078.63;5015981;28;20060;-76
2021/07/21 09:07:40;;;;;;;4.60;3.30;;;;;;;27.96;31.71;102080.94;5034512;28;20597;-77
2021/07/21 09:10:07;;;;;;;6.60;4.13;;;;;;;28.02;31.33;102081.81;5036584;28;20039;-77
2021/07/21 09:12:33;;;;;;;10.80;3.88;;;;;;;28.02;32.29;102083.69;5017260;28;20458;-75
2021/07/21 09:14:59;;;;;;;9.00;3.90;;;;;;;28.38;31.42;102077.00;5024777;28;20042;-76
2021/07/21 09:17:26;;;;;;;6.85;4.38;;;;;;;28.13;30.69;102080.13;5035063;28;20498;-77
2021/07/21 09:19:52;;;;;;;9.73;4.43;;;;;;;28.11;32.71;102085.69;5033847;28;20048;-75
2021/07/21 09:22:18;;;;;;;6.53;4.72;;;;;;;27.18;32.11;102083.22;5036577;28;20017;-74
2021/07/21 09:24:45;;;;;;;6.88;4.15;;;;;;;27.08;32.25;102084.88;5036096;28;20120;-76
2021/07/21 09:27:10;;;;;;;11.57;4.50;;;;;;;27.17;30.93;102091.44;5036504;28;20036;-74
2021/07/21 09:29:39;;;;;;;11.60;3.90;;;;;;;27.22;32.96;102085.41;5033788;28;20036;-74
2021/07/21 09:32:06;;;;;;;6.50;4.05;;;;;;;27.54;33.34;102080.47;5032108;28;20120;-75
2021/07/21 09:34:34;;;;;;;8.20;3.80;;;;;;;27.98;33.06;102083.34;5028903;28;20076;-75
2021/07/21 09:37:09;;;;;;;4.85;3.25;;;;;;;28.53;32.43;102079.91;5035154;28;20110;-75
2021/07/21 09:39:40;;;;;;;7.65;3.97;;;;;;;27.88;30.06;102081.31;5029374;28;20043;-76
2021/07/21 09:42:09;;;;;;;7.15;3.58;;;;;;;28.14;30.76;102071.88;5034778;28;20038;-77
2021/07/21 09:44:37;;;;;;;6.50;4.13;;;;;;;28.03;29.71;102078.09;5036230;28;20025;-75
2021/07/21 09:47:21;;;;;;;10.40;4.35;;;;;;;27.72;29.94;102087.41;5034245;28;20033;-77
2021/07/21 09:49:48;;;;;;;7.95;4.40;;;;;;;28.03;32.90;102071.94;5044254;28;20052;-76
2021/07/21 09:52:21;;;;;;;7.90;4.38;;;;;;;28.02;30.96;102075.69;5029549;28;20029;-75
2021/07/21 09:55:07;;;;;;;7.57;3.75;;;;;;;28.40;28.77;102077.56;5032262;28;20585;-76
2021/07/21 09:57:35;;;;;;;6.85;4.10;;;;;;;28.39;31.66;102080.47;5031828;28;20033;-77
2021/07/21 10:00:25;;;;;;;6.78;4.43;;;;;;;27.91;30.56;102077.38;5031821;28;20033;-78
2021/07/21 10:03:15;;;;;;;5.82;4.10;;;;;;;28.06;30.19;102077.59;5025204;28;20038;-77
2021/07/21 10:05:52;;;;;;;9.68;4.60;;;;;;;27.69;28.94;102085.22;5033530;28;20036;-78
2021/07/21 10:08:43;;;;;;;7.32;4.00;;;;;;;27.82;29.58;102084.13;5035276;28;20534;-77
2021/07/21 10:11:36;;;;;;;6.57;4.45;;;;;;;27.72;30.49;102082.09;5028507;28;20410;-77
2021/07/21 10:14:01;;;;;;;7.13;5.13;;;;;;;27.92;29.21;102074.47;5030298;28;20029;-77
2021/07/21 10:16:34;;;;;;;7.25;4.70;;;;;;;27.76;31.12;102068.06;5030186;28;20140;-75
2021/07/21 10:19:16;;;;;;;7.00;4.00;;;;;;;27.82;31.84;102068.13;5016174;28;20029;-76
2021/07/21 10:21:46;;;;;;;8.82;4.65;;;;;;;28.01;33.20;102072.22;5037198;28;20486;-77
2021/07/21 10:24:13;;;;;;;8.93;4.35;;;;;;;28.10;29.94;102065.41;5032499;28;20521;-79
2021/07/21 10:26:40;;;;;;;6.18;4.15;;;;;;;27.98;32.17;102064.69;5032313;28;20409;-76
2021/07/21 10:29:07;;;;;;;7.15;4.72;;;;;;;28.09;33.53;102069.13;5033209;28;20033;-75
2021/07/21 10:31:34;;;;;;;8.27;4.20;;;;;;;28.37;32.66;102070.09;5035096;28;20055;-77
2021/07/21 10:34:00;;;;;;;7.47;4.10;;;;;;;28.62;30.92;102066.19;5025320;28;20045;-77
2021/07/21 10:36:26;;;;;;;7.18;4.57;;;;;;;28.42;31.15;102062.13;5034898;28;20071;-76
2021/07/21 10:38:53;;;;;;;7.38;4.78;;;;;;;28.23;31.55;102068.78;5032496;28;20669;-77
2021/07/21 10:41:19;;;;;;;9.40;4.45;;;;;;;28.11;30.98;102076.91;5034738;28;20030;-77
2021/07/21 10:43:51;;;;;;;9.88;5.07;;;;;;;27.69;31.16;102069.25;5031170;28;20479;-77
2021/07/21 10:46:50;;;;;;;7.63;4.40;;;;;;;27.84;32.56;102063.34;5012779;28;20519;-76
2021/07/21 10:49:37;;;;;;;11.75;4.35;;;;;;;28.27;32.06;102057.38;5022888;28;20052;-77
2021/07/21 11:00:17;;;;;;;9.57;5.55;;;;;;;27.96;31.33;102064.13;5036395;28;20088;-75
2021/07/21 11:02:44;;;;;;;8.48;4.70;;;;;;;28.03;31.14;102061.28;5042805;28;20033;-77
2021/07/21 11:05:30;;;;;;;8.35;4.15;;;;;;;28.08;31.26;102056.03;5014971;28;20036;-76
2021/07/21 11:07:56;;;;;;;9.13;4.55;;;;;;;28.28;31.43;102059.00;5029361;28;20040;-76
2021/07/21 11:10:41;;;;;;;9.05;4.65;;;;;;;28.42;30.83;102054.13;5019659;28;20435;-77
2021/07/21 11:13:13;;;;;;;7.75;4.93;;;;;;;28.25;30.80;102058.69;5032839;28;20136;-77
2021/07/21 11:15:44;;;;;;;9.73;5.20;;;;;;;28.13;31.19;102056.94;5036156;28;20069;-77
2021/07/21 11:18:21;;;;;;;6.50;4.55;;;;;;;28.03;31.46;102053.28;5033676;28;20037;-76
2021/07/21 11:21:07;;;;;;;8.85;5.03;;;;;;;28.29;32.84;102057.16;5039903;28;20052;-77
2021/07/21 11:23:53;;;;;;;7.82;5.28;;;;;;;27.76;31.48;102049.41;5037855;28;20041;-77
2021/07/21 11:26:31;;;;;;;8.85;5.75;;;;;;;28.01;32.37;102048.22;5039036;28;20045;-76
2021/07/21 11:29:18;;;;;;;6.38;4.57;;;;;;;27.98;32.32;102046.03;5037335;28;20041;-77
2021/07/21 11:31:50;;;;;;;8.32;5.00;;;;;;;28.05;31.79;102051.19;5045546;28;20106;-75
2021/07/21 11:34:26;;;;;;;7.65;4.97;;;;;;;28.23;33.44;102055.47;5035061;28;20382;-77
2021/07/21 11:36:56;;;;;;;9.45;4.80;;;;;;;27.85;31.68;102060.47;5022061;28;20032;-77
2021/07/21 11:39:31;;;;;;;10.57;5.40;;;;;;;27.36;34.31;102052.97;5031770;28;20060;-77
2021/07/21 11:41:57;;;;;;;8.82;5.10;;;;;;;27.52;32.38;102058.56;5031010;28;20501;-81
2021/07/21 11:44:32;;;;;;;8.73;5.28;;;;;;;27.44;32.86;102058.97;5036061;28;20021;-78
2021/07/21 11:47:00;;;;;;;7.72;4.68;;;;;;;27.46;32.95;102060.31;5040744;28;20033;-78
2021/07/21 11:49:27;;;;;;;8.55;5.55;;;;;;;27.58;34.08;102058.44;5037430;28;20021;-77